Time;durP1;ratioP1;P1;durP2;ratioP2;P2;SDS_P1;SDS_P2;PMS_P1;PMS_P2;Temp;Humidity;BMP_temperature;BMP_pressure;BME280_temperature;BME280_humidity;BME280_pressure;Samples;Min_cycle;Max_cycle;Signal;HPM_P1;HPM_P2
2023/07/18 00:01:59;;;;;;;10.20;3.03;;;15.60;99.90;;;;;;6276278;22;20012;-87
2023/07/18 00:04:27;;;;;;;7.25;2.50;;;15.60;99.90;;;;;;6304223;22;20011;-87
2023/07/18 00:06:54;;;;;;;9.57;3.50;;;15.60;99.90;;;;;;6249543;22;20060;-87
2023/07/18 00:09:21;;;;;;;8.25;2.75;;;15.60;99.90;;;;;;6250957;22;20011;-87
2023/07/18 00:11:47;;;;;;;8.90;2.90;;;15.60;99.90;;;;;;6276536;22;20019;-88
2023/07/18 00:14:14;;;;;;;10.63;3.67;;;15.50;99.90;;;;;;6276372;22;20021;-87
2023/07/18 00:16:41;;;;;;;9.45;2.92;;;15.50;99.90;;;;;;6250030;22;20015;-87
2023/07/18 00:19:09;;;;;;;9.02;2.92;;;15.50;99.90;;;;;;6275373;22;20034;-87
2023/07/18 00:21:36;;;;;;;6.05;2.53;;;15.50;99.90;;;;;;6302161;22;20019;-87
2023/07/18 00:24:02;;;;;;;8.68;3.25;;;15.40;99.90;;;;;;6275849;22;20011;-87
2023/07/18 00:26:28;;;;;;;6.82;2.55;;;15.40;99.90;;;;;;6277884;22;20107;-87
2023/07/18 00:28:54;;;;;;;9.88;3.35;;;15.40;99.90;;;;;;6275686;22;20045;-87
2023/07/18 00:31:21;;;;;;;7.03;3.10;;;15.40;99.90;;;;;;6303780;22;20004;-87
2023/07/18 00:33:47;;;;;;;8.52;2.75;;;15.40;99.90;;;;;;6306276;22;20034;-88
2023/07/18 00:36:13;;;;;;;9.52;3.60;;;15.30;99.90;;;;;;6278167;22;20368;-87
2023/07/18 00:38:39;;;;;;;11.90;3.58;;;15.30;99.90;;;;;;6276584;22;20011;-87
2023/07/18 00:41:05;;;;;;;10.82;3.70;;;15.30;99.90;;;;;;6276015;22;20389;-87
2023/07/18 00:43:33;;;;;;;6.25;2.72;;;15.30;99.90;;;;;;6277606;22;20376;-87
2023/07/18 00:45:59;;;;;;;8.52;3.58;;;15.20;99.90;;;;;;6275995;22;20023;-87
2023/07/18 00:48:27;;;;;;;13.80;3.47;;;15.20;99.90;;;;;;6302970;22;20086;-88
2023/07/18 00:50:53;;;;;;;7.72;3.00;;;15.20;99.90;;;;;;6274781;22;20011;-87
2023/07/18 00:53:22;;;;;;;10.60;3.00;;;15.20;99.90;;;;;;6302607;22;20022;-87
2023/07/18 00:55:49;;;;;;;10.63;3.65;;;15.20;99.90;;;;;;6275240;22;20022;-87
2023/07/18 00:58:15;;;;;;;9.23;2.95;;;15.20;99.90;;;;;;6248209;22;20058;-87
2023/07/18 01:00:41;;;;;;;7.43;2.95;;;15.20;99.90;;;;;;6276614;22;20019;-87
2023/07/18 01:03:07;;;;;;;8.07;3.03;;;15.20;99.90;;;;;;6251225;22;20098;-87
2023/07/18 01:05:33;;;;;;;9.57;3.03;;;15.20;99.90;;;;;;6276447;22;20022;-86
2023/07/18 01:08:00;;;;;;;12.55;3.85;;;15.30;99.90;;;;;;6249785;22;20091;-87
2023/07/18 01:10:27;;;;;;;8.43;2.90;;;15.20;99.90;;;;;;6249933;22;20442;-87
2023/07/18 01:13:00;;;;;;;9.48;2.95;;;15.10;99.90;;;;;;6274750;22;20025;-87
2023/07/18 01:15:29;;;;;;;7.78;3.22;;;15.10;99.90;;;;;;6275555;22;20015;-87
2023/07/18 01:17:56;;;;;;;8.35;3.17;;;15.10;99.90;;;;;;6275143;22;20027;-87
2023/07/18 01:20:26;;;;;;;8.57;3.30;;;15.00;99.90;;;;;;6275338;22;20015;-87
2023/07/18 01:22:55;;;;;;;7.00;3.38;;;15.00;99.90;;;;;;6274819;22;20060;-86
2023/07/18 01:25:25;;;;;;;8.02;3.47;;;14.90;99.90;;;;;;6303058;22;20325;-87
2023/07/18 01:27:52;;;;;;;10.52;4.05;;;14.90;99.90;;;;;;6303622;22;20081;-87
2023/07/18 01:30:21;;;;;;;9.15;3.22;;;14.80;99.90;;;;;;6275458;22;20430;-86
2023/07/18 01:32:52;;;;;;;10.70;3.42;;;14.70;99.90;;;;;;6301050;22;20611;-86
2023/07/18 01:35:25;;;;;;;11.93;3.70;;;14.70;99.90;;;;;;6248790;22;20437;-86
2023/07/18 01:37:53;;;;;;;9.43;3.22;;;14.70;99.90;;;;;;6276260;22;20022;-87
2023/07/18 01:40:22;;;;;;;5.82;2.95;;;14.70;99.90;;;;;;6275896;22;20015;-87
2023/07/18 01:42:53;;;;;;;10.57;4.32;;;14.70;99.90;;;;;;6276328;22;20096;-87
2023/07/18 01:45:24;;;;;;;10.65;3.20;;;14.70;99.90;;;;;;6275141;22;20098;-87
2023/07/18 01:47:51;;;;;;;9.10;3.60;;;14.70;99.90;;;;;;6275075;22;20019;-86
2023/07/18 01:50:17;;;;;;;7.55;3.35;;;14.70;99.90;;;;;;6303359;22;20097;-86
2023/07/18 01:52:43;;;;;;;9.23;3.78;;;14.60;99.90;;;;;;6276024;22;20018;-86
2023/07/18 01:55:12;;;;;;;10.45;3.70;;;14.60;99.90;;;;;;6301673;22;20303;-86
2023/07/18 01:57:38;;;;;;;6.68;3.28;;;14.60;99.90;;;;;;6303587;22;20014;-86
2023/07/18 02:00:05;;;;;;;15.20;3.47;;;14.60;99.90;;;;;;6303365;22;20011;-86
2023/07/18 02:02:30;;;;;;;10.02;3.38;;;14.60;99.90;;;;;;6274361;22;20019;-86
2023/07/18 02:04:58;;;;;;;12.77;3.72;;;14.60;99.90;;;;;;6303534;22;20033;-87
2023/07/18 02:07:25;;;;;;;8.75;3.45;;;14.60;99.90;;;;;;6303723;22;20328;-87
2023/07/18 02:09:51;;;;;;;10.20;4.38;;;14.60;99.90;;;;;;6303753;22;20053;-86
2023/07/18 02:12:17;;;;;;;11.88;3.90;;;14.60;99.90;;;;;;6275307;22;20432;-87
2023/07/18 02:14:43;;;;;;;9.07;3.33;;;14.60;99.90;;;;;;6248879;22;20041;-86
2023/07/18 02:17:08;;;;;;;12.45;3.72;;;14.60;99.90;;;;;;6274384;22;20011;-86
2023/07/18 02:19:38;;;;;;;9.85;3.90;;;14.60;99.90;;;;;;6275504;22;20018;-86
2023/07/18 02:22:04;;;;;;;12.52;4.38;;;14.60;99.90;;;;;;6302627;22;20018;-86
2023/07/18 02:24:30;;;;;;;13.32;4.05;;;14.60;99.90;;;;;;6303122;22;20011;-86
2023/07/18 02:26:57;;;;;;;10.02;3.53;;;14.60;99.90;;;;;;6275405;22;20472;-87
2023/07/18 02:29:23;;;;;;;16.20;4.22;;;14.60;99.90;;;;;;6274783;22;20043;-86
2023/07/18 02:31:49;;;;;;;7.65;3.47;;;14.60;99.90;;;;;;6302121;22;20097;-87
2023/07/18 02:34:15;;;;;;;12.73;4.15;;;14.60;99.90;;;;;;6302067;22;20007;-87
2023/07/18 02:36:41;;;;;;;8.18;3.80;;;14.60;99.90;;;;;;6274634;22;20094;-86
2023/07/18 02:39:10;;;;;;;9.82;3.30;;;14.60;99.90;;;;;;6274510;22;20019;-86
2023/07/18 02:41:36;;;;;;;10.73;3.70;;;14.60;99.90;;;;;;6274906;22;20022;-87
2023/07/18 02:44:03;;;;;;;10.73;3.65;;;14.60;99.90;;;;;;6274837;22;20008;-86
2023/07/18 02:46:29;;;;;;;12.45;3.92;;;14.60;99.90;;;;;;6301457;22;20011;-87
2023/07/18 02:48:55;;;;;;;10.73;4.25;;;14.60;99.90;;;;;;6274280;22;20023;-85
2023/07/18 02:51:20;;;;;;;10.20;3.55;;;14.60;99.90;;;;;;6275326;22;20015;-86
2023/07/18 02:53:49;;;;;;;11.57;4.10;;;14.60;99.90;;;;;;6303264;22;20019;-87
2023/07/18 02:56:15;;;;;;;7.80;3.45;;;14.60;99.90;;;;;;6275511;22;20011;-86
2023/07/18 02:58:41;;;;;;;10.52;4.20;;;14.50;99.90;;;;;;6303141;22;20082;-86
2023/07/18 03:01:07;;;;;;;9.00;3.22;;;14.50;99.90;;;;;;6274496;22;20103;-86
2023/07/18 03:03:34;;;;;;;14.38;3.83;;;14.50;99.90;;;;;;6302123;22;20015;-86
2023/07/18 03:06:00;;;;;;;8.63;3.92;;;14.50;99.90;;;;;;6302382;22;20047;-86
2023/07/18 03:08:27;;;;;;;8.75;4.20;;;14.50;99.90;;;;;;6302888;22;20019;-86
2023/07/18 03:10:53;;;;;;;16.88;4.60;;;14.50;99.90;;;;;;6274941;22;20003;-86
2023/07/18 03:13:19;;;;;;;8.32;3.95;;;14.40;99.90;;;;;;6302582;22;20087;-86
2023/07/18 03:15:44;;;;;;;12.40;4.47;;;14.40;99.90;;;;;;6302109;22;20003;-87
2023/07/18 03:18:10;;;;;;;14.23;5.15;;;14.30;99.90;;;;;;6302404;22;20583;-86
2023/07/18 03:20:38;;;;;;;14.80;4.43;;;14.20;99.90;;;;;;6302990;22;20076;-86
2023/07/18 03:23:04;;;;;;;8.95;3.65;;;14.10;99.90;;;;;;6302586;22;20011;-86
2023/07/18 03:25:30;;;;;;;12.63;4.40;;;14.20;99.90;;;;;;6302652;22;20072;-86
2023/07/18 03:27:56;;;;;;;12.52;4.20;;;14.20;99.90;;;;;;6302014;22;20330;-86
2023/07/18 03:30:21;;;;;;;9.65;4.03;;;14.20;99.90;;;;;;6302110;22;20333;-87
2023/07/18 03:32:49;;;;;;;12.50;4.80;;;14.20;99.90;;;;;;6302061;22;20015;-87
2023/07/18 03:35:14;;;;;;;9.80;4.07;;;14.20;99.90;;;;;;6274530;22;20022;-86
2023/07/18 03:37:40;;;;;;;10.07;4.35;;;14.10;99.90;;;;;;6302751;22;20649;-86
2023/07/18 03:40:06;;;;;;;11.27;4.70;;;14.10;99.90;;;;;;6302366;22;20011;-86
2023/07/18 03:42:35;;;;;;;9.45;4.47;;;14.10;99.90;;;;;;6274887;22;20019;-86
2023/07/18 03:45:02;;;;;;;14.32;4.85;;;14.20;99.90;;;;;;6273854;22;20022;-86
2023/07/18 03:47:28;;;;;;;8.85;4.18;;;14.10;99.90;;;;;;6301946;22;20018;-86
2023/07/18 03:49:54;;;;;;;12.10;4.25;;;14.10;99.90;;;;;;6301724;22;20330;-87
2023/07/18 03:52:19;;;;;;;13.20;5.63;;;14.10;99.90;;;;;;6301219;22;20090;-86
2023/07/18 03:54:45;;;;;;;13.32;5.07;;;14.10;99.90;;;;;;6274782;22;20594;-87
2023/07/18 03:57:12;;;;;;;12.20;4.63;;;14.10;99.90;;;;;;6302430;22;20421;-86
2023/07/18 03:59:38;;;;;;;15.40;5.72;;;14.00;99.90;;;;;;6301665;22;20022;-86
2023/07/18 04:02:04;;;;;;;10.65;4.28;;;14.00;99.90;;;;;;6301720;22;20015;-86
2023/07/18 04:04:30;;;;;;;10.57;4.93;;;14.00;99.90;;;;;;6302602;22;20125;-86
2023/07/18 04:06:56;;;;;;;12.50;5.40;;;14.00;99.90;;;;;;6301858;22;20011;-86
2023/07/18 04:09:22;;;;;;;9.73;5.15;;;14.00;99.90;;;;;;6302288;22;20537;-86
2023/07/18 04:11:47;;;;;;;12.75;5.07;;;14.00;99.90;;;;;;6302412;22;20011;-86
2023/07/18 04:14:13;;;;;;;13.07;5.90;;;14.00;99.90;;;;;;6301482;22;20015;-86
2023/07/18 04:16:39;;;;;;;12.45;5.32;;;14.00;99.90;;;;;;6302366;22;20389;-86
2023/07/18 04:19:07;;;;;;;11.85;5.65;;;14.10;99.90;;;;;;6302161;22;20011;-86
2023/07/18 04:21:33;;;;;;;17.50;5.85;;;14.20;99.90;;;;;;6302621;22;20011;-86
2023/07/18 04:23:59;;;;;;;11.68;4.90;;;14.00;99.90;;;;;;6301980;22;20004;-86
2023/07/18 04:26:24;;;;;;;8.63;3.88;;;14.00;99.90;;;;;;6275010;22;20011;-86
2023/07/18 04:28:50;;;;;;;14.90;5.15;;;14.10;99.90;;;;;;6301533;22;20015;-86
2023/07/18 04:31:16;;;;;;;12.60;5.28;;;14.10;99.90;;;;;;6274644;22;20015;-86
2023/07/18 04:33:42;;;;;;;9.80;4.90;;;14.10;99.90;;;;;;6301844;22;20078;-86
2023/07/18 04:36:08;;;;;;;12.30;4.55;;;14.20;99.90;;;;;;6274444;22;20039;-86
2023/07/18 04:38:34;;;;;;;13.00;5.10;;;14.20;99.90;;;;;;6275289;22;20072;-86
2023/07/18 04:41:01;;;;;;;15.65;4.68;;;14.10;99.90;;;;;;6276240;22;20023;-86
2023/07/18 04:43:27;;;;;;;14.80;4.95;;;14.10;99.90;;;;;;6305639;22;20033;-85
2023/07/18 04:45:53;;;;;;;15.88;5.75;;;14.10;99.90;;;;;;6277417;22;20047;-86
2023/07/18 04:48:19;;;;;;;11.07;5.13;;;14.20;99.90;;;;;;6276934;22;20095;-86
2023/07/18 04:50:46;;;;;;;10.68;4.78;;;14.20;99.90;;;;;;6277677;22;20068;-86
2023/07/18 04:53:12;;;;;;;13.65;4.90;;;14.20;99.90;;;;;;6304137;22;20007;-86
2023/07/18 04:55:41;;;;;;;12.82;5.22;;;14.20;99.90;;;;;;6274017;22;20011;-86
2023/07/18 04:58:07;;;;;;;9.68;4.05;;;14.30;99.90;;;;;;6301709;22;20081;-86
2023/07/18 05:00:34;;;;;;;14.32;4.50;;;14.20;99.90;;;;;;6303849;22;20038;-86
2023/07/18 05:03:00;;;;;;;14.18;5.13;;;14.30;99.90;;;;;;6274685;22;20014;-85
2023/07/18 05:05:27;;;;;;;12.55;4.88;;;14.30;99.90;;;;;;6302738;22;20078;-86
2023/07/18 05:08:00;;;;;;;13.45;4.68;;;14.30;99.90;;;;;;6276958;22;20038;-86
2023/07/18 05:10:26;;;;;;;13.50;4.65;;;14.30;99.90;;;;;;6306726;22;20090;-86
2023/07/18 05:12:53;;;;;;;13.45;4.95;;;14.40;99.90;;;;;;6305152;22;20088;-87
2023/07/18 05:15:19;;;;;;;11.02;4.55;;;14.40;99.90;;;;;;6277872;22;20011;-86
2023/07/18 05:17:45;;;;;;;14.27;4.68;;;14.30;99.90;;;;;;6275806;22;20010;-87
2023/07/18 05:20:12;;;;;;;13.35;5.32;;;14.30;99.90;;;;;;6304261;22;20015;-86
2023/07/18 05:22:39;;;;;;;17.10;5.53;;;14.30;99.90;;;;;;6277125;22;20007;-86
2023/07/18 05:25:06;;;;;;;15.68;5.35;;;14.30;99.90;;;;;;6277221;22;20442;-85
2023/07/18 05:27:32;;;;;;;13.75;4.88;;;14.30;99.90;;;;;;6303644;22;20017;-85
2023/07/18 05:29:58;;;;;;;10.70;4.93;;;14.40;99.90;;;;;;6305343;22;20015;-86
2023/07/18 05:32:23;;;;;;;13.80;4.88;;;14.40;99.90;;;;;;6280305;22;20012;-85
2023/07/18 05:34:49;;;;;;;13.18;4.93;;;14.50;99.90;;;;;;6307734;22;20461;-87
2023/07/18 05:37:16;;;;;;;10.98;4.72;;;14.50;99.90;;;;;;6308156;22;20007;-87
2023/07/18 05:39:41;;;;;;;12.80;4.22;;;14.60;99.90;;;;;;6308166;22;20043;-87
2023/07/18 05:42:07;;;;;;;14.32;4.95;;;14.70;99.90;;;;;;6307250;22;20046;-85
2023/07/18 05:44:33;;;;;;;8.60;4.00;;;14.80;99.90;;;;;;6280469;22;20027;-86
2023/07/18 05:46:59;;;;;;;13.93;4.90;;;14.90;99.90;;;;;;6306663;22;20007;-87
2023/07/18 05:49:27;;;;;;;12.18;4.18;;;14.90;99.90;;;;;;6278356;22;20022;-87
2023/07/18 05:51:53;;;;;;;13.65;4.82;;;15.00;99.90;;;;;;6304072;22;20022;-86
2023/07/18 05:54:19;;;;;;;14.00;5.15;;;15.10;99.90;;;;;;6277037;22;20011;-86
2023/07/18 05:56:44;;;;;;;12.15;4.80;;;15.20;99.90;;;;;;6276668;22;20093;-84
2023/07/18 05:59:10;;;;;;;16.60;5.57;;;15.20;99.90;;;;;;6305200;22;20019;-85
2023/07/18 06:01:36;;;;;;;15.68;4.55;;;15.20;99.90;;;;;;6306232;22;20025;-86
2023/07/18 06:04:02;;;;;;;17.27;4.50;;;15.30;99.90;;;;;;6278184;22;20728;-83
2023/07/18 06:06:27;;;;;;;15.73;5.15;;;15.30;99.90;;;;;;6278003;22;20043;-84
2023/07/18 06:08:53;;;;;;;11.45;4.07;;;15.20;99.90;;;;;;6304089;22;20012;-86
2023/07/18 06:11:18;;;;;;;14.35;5.05;;;15.30;99.90;;;;;;6278023;22;20015;-86
2023/07/18 06:13:49;;;;;;;14.98;5.15;;;15.30;99.90;;;;;;6278487;22;20018;-86
2023/07/18 06:16:14;;;;;;;14.63;5.03;;;15.40;99.90;;;;;;6306599;22;20011;-87
2023/07/18 06:18:43;;;;;;;13.82;4.43;;;15.50;99.90;;;;;;6280256;22;20094;-87
2023/07/18 06:21:08;;;;;;;12.90;4.30;;;15.60;99.90;;;;;;6305686;22;20077;-88
2023/07/18 06:23:34;;;;;;;14.63;4.70;;;15.60;99.90;;;;;;6280471;22;20441;-86
2023/07/18 06:26:00;;;;;;;12.75;4.88;;;15.60;99.90;;;;;;6277874;22;20067;-85
2023/07/18 06:28:25;;;;;;;12.32;4.65;;;15.70;99.90;;;;;;6277709;22;20098;-84
2023/07/18 06:30:55;;;;;;;13.30;4.60;;;15.70;99.90;;;;;;6305333;22;20433;-85
2023/07/18 06:33:25;;;;;;;11.32;4.28;;;15.80;99.90;;;;;;6278090;22;20089;-85
2023/07/18 06:35:55;;;;;;;9.00;3.70;;;15.80;99.90;;;;;;6304452;22;20011;-85
2023/07/18 06:38:21;;;;;;;11.77;4.65;;;15.80;99.90;;;;;;6276810;22;20373;-84
2023/07/18 06:40:50;;;;;;;14.07;4.65;;;15.90;99.90;;;;;;6277296;22;20102;-85
2023/07/18 06:43:18;;;;;;;16.23;4.68;;;15.90;99.90;;;;;;6304721;22;20030;-85
2023/07/18 06:45:48;;;;;;;14.80;4.07;;;16.00;99.90;;;;;;6304835;22;20038;-85
2023/07/18 06:48:14;;;;;;;15.45;5.53;;;16.10;99.90;;;;;;6305138;22;20094;-85
2023/07/18 06:50:48;;;;;;;16.58;4.60;;;16.20;99.90;;;;;;6304605;22;20007;-85
2023/07/18 06:53:17;;;;;;;15.93;5.07;;;16.40;99.90;;;;;;6303495;22;20007;-84
2023/07/18 06:55:44;;;;;;;12.73;4.45;;;16.40;99.90;;;;;;6276178;22;20022;-85
2023/07/18 06:58:09;;;;;;;20.00;4.68;;;16.50;99.90;;;;;;6304717;22;20110;-86
2023/07/18 07:00:36;;;;;;;13.52;3.42;;;16.60;99.90;;;;;;6305721;22;20042;-87
2023/07/18 07:03:03;;;;;;;17.85;4.57;;;16.70;99.90;;;;;;6278131;22;20077;-84
2023/07/18 07:05:28;;;;;;;12.35;3.55;;;16.70;99.90;;;;;;6303417;22;20019;-85
2023/07/18 07:07:54;;;;;;;14.13;4.18;;;16.80;99.90;;;;;;6301542;22;20080;-84
2023/07/18 07:10:21;;;;;;;14.57;3.90;;;16.90;99.90;;;;;;6302578;22;20800;-85
2023/07/18 07:12:47;;;;;;;13.23;3.92;;;17.00;99.90;;;;;;6275320;22;20278;-85
2023/07/18 07:15:13;;;;;;;16.00;3.67;;;17.00;99.90;;;;;;6274882;22;20077;-85
2023/07/18 07:17:39;;;;;;;12.45;3.85;;;17.00;99.90;;;;;;6274963;22;20012;-85
2023/07/18 07:20:14;;;;;;;15.07;3.65;;;17.20;99.90;;;;;;6275156;22;20095;-85
2023/07/18 07:22:43;;;;;;;12.57;3.22;;;17.20;99.90;;;;;;6274277;22;20026;-83
2023/07/18 07:25:13;;;;;;;15.18;4.10;;;17.40;99.90;;;;;;6274687;22;20434;-85
2023/07/18 07:27:44;;;;;;;12.45;3.15;;;17.50;99.90;;;;;;6303271;22;20022;-86
2023/07/18 07:30:15;;;;;;;16.92;4.00;;;17.70;99.90;;;;;;6274177;22;20047;-81
2023/07/18 07:32:44;;;;;;;10.57;3.30;;;17.90;99.90;;;;;;6301421;22;20046;-84
2023/07/18 07:35:11;;;;;;;17.52;4.05;;;18.20;99.90;;;;;;6300517;22;20559;-83
2023/07/18 07:37:40;;;;;;;13.02;4.18;;;18.40;99.90;;;;;;6274669;22;20345;-82
2023/07/18 07:40:09;;;;;;;14.50;3.78;;;18.60;99.90;;;;;;6303898;22;20018;-85
2023/07/18 07:42:37;;;;;;;13.80;3.70;;;18.80;99.90;;;;;;6276496;22;20015;-85
2023/07/18 07:45:04;;;;;;;13.95;3.55;;;19.00;99.90;;;;;;6304241;22;20329;-85
2023/07/18 07:47:29;;;;;;;15.70;4.43;;;19.20;99.90;;;;;;6303628;22;20007;-85
2023/07/18 07:49:55;;;;;;;17.23;3.90;;;19.30;99.90;;;;;;6275423;22;20342;-85
2023/07/18 07:52:20;;;;;;;16.60;3.40;;;19.30;99.90;;;;;;6276648;22;20011;-85
2023/07/18 07:54:48;;;;;;;13.43;2.85;;;19.50;99.90;;;;;;6276342;22;20015;-85
2023/07/18 07:57:14;;;;;;;14.35;3.70;;;19.70;99.90;;;;;;6303722;22;20007;-85
2023/07/18 07:59:40;;;;;;;13.77;3.65;;;19.80;99.90;;;;;;6304662;22;20015;-85
2023/07/18 08:02:06;;;;;;;12.85;3.65;;;19.90;99.90;;;;;;6303446;22;20086;-85
2023/07/18 08:04:32;;;;;;;12.43;3.55;;;19.80;99.90;;;;;;6275377;22;20038;-85
2023/07/18 08:06:58;;;;;;;15.85;4.07;;;19.70;99.90;;;;;;6275708;22;20015;-85
2023/07/18 08:09:23;;;;;;;19.33;3.58;;;19.70;99.90;;;;;;6303331;22;20019;-85
2023/07/18 08:11:49;;;;;;;18.65;4.20;;;19.60;99.90;;;;;;6303706;22;20026;-85
2023/07/18 08:14:17;;;;;;;16.05;4.70;;;19.70;99.90;;;;;;6277614;22;20011;-85
2023/07/18 08:16:42;;;;;;;13.35;3.85;;;19.80;99.90;;;;;;6252586;22;20007;-85
2023/07/18 08:19:09;;;;;;;16.73;3.85;;;19.90;99.90;;;;;;6277202;22;20019;-85
2023/07/18 08:21:34;;;;;;;19.92;4.10;;;20.00;99.90;;;;;;6277491;22;20015;-85
2023/07/18 08:24:02;;;;;;;13.13;3.17;;;20.10;99.90;;;;;;6305316;22;20015;-85
2023/07/18 08:26:27;;;;;;;9.48;2.95;;;20.30;99.90;;;;;;6305914;22;20049;-85
2023/07/18 08:28:53;;;;;;;13.63;2.92;;;20.50;99.90;;;;;;6277391;22;20334;-85
2023/07/18 08:31:19;;;;;;;12.98;3.40;;;20.60;99.90;;;;;;6278178;22;20435;-85
2023/07/18 08:33:45;;;;;;;11.60;2.92;;;20.60;99.90;;;;;;6305505;22;20422;-85
2023/07/18 08:36:11;;;;;;;9.20;3.60;;;20.70;99.90;;;;;;6251843;22;20015;-85
2023/07/18 08:38:37;;;;;;;8.07;2.53;;;20.80;99.90;;;;;;6304507;22;20015;-85
2023/07/18 08:41:03;;;;;;;9.50;3.03;;;20.90;99.90;;;;;;6303475;22;20618;-85
2023/07/18 08:43:31;;;;;;;10.15;2.28;;;20.90;99.90;;;;;;6304840;22;20043;-85
2023/07/18 08:45:57;;;;;;;12.98;3.45;;;21.00;99.90;;;;;;6304373;22;20030;-85
2023/07/18 08:48:26;;;;;;;13.45;3.35;;;21.10;99.90;;;;;;6303981;22;20008;-85
2023/07/18 08:50:53;;;;;;;15.88;3.30;;;21.30;99.90;;;;;;6304597;22;20058;-85
2023/07/18 08:53:20;;;;;;;11.77;3.10;;;21.30;99.90;;;;;;6277372;22;20065;-85
2023/07/18 08:55:46;;;;;;;13.63;2.92;;;21.40;99.90;;;;;;6251135;22;20022;-85
2023/07/18 08:58:12;;;;;;;12.55;3.15;;;21.30;99.90;;;;;;6276775;22;20015;-85
2023/07/18 09:00:38;;;;;;;7.95;2.50;;;21.30;99.90;;;;;;6304457;22;20019;-85
2023/07/18 09:03:04;;;;;;;11.90;3.00;;;21.30;99.90;;;;;;6275896;22;20019;-85
2023/07/18 09:05:35;;;;;;;11.60;3.13;;;21.40;99.90;;;;;;6276846;22;20456;-85
2023/07/18 09:08:03;;;;;;;9.38;2.55;;;21.30;99.90;;;;;;6303860;22;20430;-84
2023/07/18 09:10:29;;;;;;;12.55;3.03;;;21.30;99.90;;;;;;6276825;22;20011;-85
2023/07/18 09:13:03;;;;;;;11.30;2.42;;;21.30;99.90;;;;;;6276574;22;20518;-85
2023/07/18 09:15:29;;;;;;;12.45;2.83;;;21.30;99.90;;;;;;6251039;22;20019;-85
2023/07/18 09:18:00;;;;;;;9.00;2.00;;;21.30;99.90;;;;;;6302848;22;20430;-85
2023/07/18 09:20:29;;;;;;;13.75;2.65;;;21.40;99.90;;;;;;6304575;22;20011;-85
2023/07/18 09:22:56;;;;;;;13.02;3.17;;;21.40;99.90;;;;;;6303977;22;20053;-85
2023/07/18 09:25:26;;;;;;;8.38;1.95;;;21.60;99.90;;;;;;6276738;22;20007;-85
2023/07/18 09:27:53;;;;;;;13.80;2.63;;;21.70;99.90;;;;;;6304150;22;20493;-85
2023/07/18 09:30:26;;;;;;;13.30;3.15;;;21.80;99.90;;;;;;6303796;22;20369;-85
2023/07/18 09:32:55;;;;;;;8.95;2.83;;;21.80;99.90;;;;;;6275666;22;20133;-85
2023/07/18 09:35:21;;;;;;;9.80;2.92;;;21.80;99.90;;;;;;6276820;22;20050;-85
2023/07/18 09:37:48;;;;;;;10.35;2.63;;;21.90;99.90;;;;;;6276195;22;20495;-88
2023/07/18 09:40:16;;;;;;;10.68;2.75;;;21.90;99.90;;;;;;6303324;22;20049;-85
2023/07/18 09:42:47;;;;;;;8.20;2.10;;;22.00;99.90;;;;;;6277149;22;20086;-85
2023/07/18 09:45:14;;;;;;;8.10;2.30;;;22.00;99.90;;;;;;6304180;22;20114;-86
2023/07/18 09:47:43;;;;;;;10.60;2.20;;;22.00;99.90;;;;;;6276622;22;20007;-86
2023/07/18 09:50:12;;;;;;;8.30;2.03;;;22.00;99.90;;;;;;6303125;22;20453;-85
2023/07/18 09:52:49;;;;;;;10.25;2.35;;;21.90;99.90;;;;;;6304306;22;20033;-85
2023/07/18 09:55:21;;;;;;;10.27;2.00;;;21.90;99.90;;;;;;6275709;22;20035;-85
2023/07/18 09:57:49;;;;;;;7.18;1.75;;;22.00;99.90;;;;;;6276123;22;20015;-85
2023/07/18 10:00:15;;;;;;;7.15;2.25;;;22.00;99.90;;;;;;6303061;22;20045;-85
2023/07/18 10:02:42;;;;;;;11.02;2.35;;;22.10;99.90;;;;;;6276064;22;20054;-85
2023/07/18 10:05:14;;;;;;;9.70;2.50;;;22.20;99.90;;;;;;6276318;22;20019;-86
2023/07/18 10:07:41;;;;;;;10.63;2.10;;;22.30;99.90;;;;;;6276259;22;20090;-85
2023/07/18 10:10:08;;;;;;;8.30;2.33;;;22.40;99.90;;;;;;6275756;22;20057;-85
2023/07/18 10:12:36;;;;;;;10.80;2.42;;;22.50;99.90;;;;;;6276843;22;20015;-85
2023/07/18 10:15:03;;;;;;;11.27;2.03;;;22.50;99.90;;;;;;6250109;22;20082;-85
2023/07/18 10:17:38;;;;;;;7.45;1.85;;;22.60;99.90;;;;;;6250710;22;20007;-85
2023/07/18 10:20:17;;;;;;;9.57;2.10;;;22.70;99.90;;;;;;6303682;22;20056;-85
2023/07/18 10:22:57;;;;;;;5.43;1.38;;;22.90;99.90;;;;;;6276457;22;20022;-86
2023/07/18 10:25:25;;;;;;;6.32;1.77;;;23.00;99.90;;;;;;6276767;22;20015;-85
2023/07/18 10:27:51;;;;;;;10.68;1.40;;;23.10;99.90;;;;;;6303881;22;20011;-86
2023/07/18 10:30:20;;;;;;;9.00;1.60;;;23.30;99.90;;;;;;6275058;22;20046;-86
2023/07/18 10:32:57;;;;;;;6.88;1.50;;;23.30;99.90;;;;;;6272835;22;20021;-85
2023/07/18 10:35:26;;;;;;;8.18;1.60;;;23.40;99.90;;;;;;6274258;22;20468;-86
2023/07/18 10:37:58;;;;;;;6.35;1.25;;;23.50;99.90;;;;;;6275114;22;20019;-86
2023/07/18 10:40:40;;;;;;;6.65;1.40;;;23.60;99.90;;;;;;6276412;22;20489;-86
2023/07/18 10:43:07;;;;;;;6.53;1.35;;;23.80;99.90;;;;;;6304326;22;20019;-86
2023/07/18 10:45:40;;;;;;;5.63;1.40;;;24.00;99.90;;;;;;6250491;22;20015;-86
2023/07/18 10:48:11;;;;;;;5.95;1.13;;;24.10;99.90;;;;;;6303081;22;20046;-85
2023/07/18 10:50:37;;;;;;;8.30;1.30;;;24.20;99.90;;;;;;6304030;22;20016;-86
2023/07/18 10:53:03;;;;;;;7.40;1.50;;;24.30;99.90;;;;;;6250708;22;20019;-84
2023/07/18 10:55:28;;;;;;;6.65;1.35;;;24.30;99.70;;;;;;6304099;22;20011;-85
2023/07/18 10:57:55;;;;;;;5.68;1.27;;;24.30;99.40;;;;;;6275965;22;20004;-86
2023/07/18 11:00:24;;;;;;;10.10;1.48;;;24.40;99.50;;;;;;6303787;22;20019;-86
2023/07/18 11:02:50;;;;;;;7.53;1.27;;;24.40;99.30;;;;;;6274668;22;20377;-86
2023/07/18 11:05:16;;;;;;;7.00;1.58;;;24.50;98.90;;;;;;6303320;22;20078;-86
2023/07/18 11:07:44;;;;;;;5.68;1.10;;;24.60;99.10;;;;;;6276956;22;20125;-85
2023/07/18 11:10:10;;;;;;;5.97;1.42;;;24.70;99.00;;;;;;6303055;22;20051;-85
2023/07/18 11:12:36;;;;;;;3.90;1.00;;;24.80;99.00;;;;;;6275666;22;20015;-86
2023/07/18 11:15:07;;;;;;;6.28;1.15;;;24.90;98.20;;;;;;6275129;22;20015;-85
2023/07/18 11:17:33;;;;;;;7.70;1.15;;;25.00;97.60;;;;;;6303752;22;20011;-85
2023/07/18 11:19:59;;;;;;;8.15;1.33;;;25.10;97.40;;;;;;6275281;22;20378;-86
2023/07/18 11:22:25;;;;;;;6.85;1.15;;;25.10;98.00;;;;;;6275507;22;20023;-86
2023/07/18 11:24:51;;;;;;;8.77;1.55;;;25.20;98.40;;;;;;6249923;22;20366;-86
2023/07/18 11:27:22;;;;;;;5.95;1.00;;;25.20;98.50;;;;;;6302219;22;20484;-85
2023/07/18 11:30:08;;;;;;;9.23;1.50;;;25.20;98.10;;;;;;6303516;22;20035;-86
2023/07/18 11:32:39;;;;;;;4.90;1.30;;;25.10;97.50;;;;;;6303185;22;20003;-86
2023/07/18 11:35:10;;;;;;;6.55;1.70;;;25.10;97.90;;;;;;6275871;22;20057;-86
2023/07/18 11:37:38;;;;;;;7.05;1.10;;;25.10;98.20;;;;;;6304468;22;20014;-88
2023/07/18 11:40:05;;;;;;;7.30;1.23;;;24.90;97.90;;;;;;6277293;22;20047;-89
2023/07/18 11:42:50;;;;;;;7.25;1.17;;;24.80;97.70;;;;;;6277070;22;20027;-87
2023/07/18 11:45:18;;;;;;;6.13;1.13;;;24.60;97.20;;;;;;6276431;22;20019;-88
2023/07/18 11:47:45;;;;;;;5.63;1.02;;;24.40;98.20;;;;;;6304571;22;20100;-90
2023/07/18 11:50:13;;;;;;;6.32;1.15;;;24.20;97.90;;;;;;6276598;22;20025;-91
2023/07/18 11:52:41;;;;;;;8.20;1.10;;;24.00;98.50;;;;;;6273373;22;20015;-85
2023/07/18 11:55:07;;;;;;;7.40;1.10;;;23.90;98.60;;;;;;6302709;22;20050;-85
2023/07/18 11:57:32;;;;;;;7.63;1.35;;;23.70;98.70;;;;;;6303023;22;20015;-86
2023/07/18 11:59:58;;;;;;;6.35;0.95;;;23.60;98.90;;;;;;6276032;22;20582;-87
2023/07/18 12:02:24;;;;;;;5.47;1.20;;;23.50;99.20;;;;;;6251409;22;20079;-87
2023/07/18 12:04:50;;;;;;;5.93;1.10;;;23.40;99.20;;;;;;6275582;22;20026;-88
2023/07/18 12:07:16;;;;;;;8.35;1.30;;;23.30;99.30;;;;;;6303140;22;20330;-87
2023/07/18 12:09:42;;;;;;;6.22;1.30;;;23.30;99.70;;;;;;6276970;22;20103;-87
2023/07/18 12:12:08;;;;;;;6.28;1.15;;;23.20;99.60;;;;;;6276665;22;20058;-87
2023/07/18 12:14:35;;;;;;;4.40;1.02;;;23.10;99.70;;;;;;6276912;22;20011;-90
2023/07/18 12:17:00;;;;;;;8.13;1.80;;;23.10;99.80;;;;;;6278274;22;20011;-86
2023/07/18 12:19:26;;;;;;;8.02;1.40;;;23.10;99.90;;;;;;6305525;22;20050;-89
2023/07/18 12:21:52;;;;;;;6.15;1.48;;;23.10;99.90;;;;;;6305953;22;20107;-89
2023/07/18 12:24:18;;;;;;;6.60;1.38;;;23.10;99.90;;;;;;6305609;22;20809;-90
2023/07/18 12:26:45;;;;;;;7.88;1.50;;;23.20;99.90;;;;;;6277458;22;20094;-89
2023/07/18 12:29:15;;;;;;;6.00;1.25;;;23.20;99.90;;;;;;6278788;22;20319;-94
2023/07/18 12:31:45;;;;;;;7.78;1.35;;;23.30;99.90;;;;;;6309112;22;20023;-93
2023/07/18 12:34:10;;;;;;;6.30;0.90;;;23.30;99.90;;;;;;6307429;22;20029;-91
2023/07/18 12:36:37;;;;;;;6.78;1.40;;;23.40;99.90;;;;;;6280854;22;20015;-95
2023/07/18 12:39:03;;;;;;;4.65;1.55;;;23.40;99.90;;;;;;6306016;22;20147;-94
2023/07/18 12:41:28;;;;;;;8.75;1.60;;;23.50;99.90;;;;;;6303890;22;20021;-89